createdAt,value
2019-06-10T00:02:25.896Z,1.63
2019-06-10T00:05:07.426Z,1.90
2019-06-10T00:07:41.073Z,1.63
2019-06-10T00:10:13.939Z,1.57
2019-06-10T00:12:48.786Z,2.00
2019-06-10T00:15:21.367Z,1.70
2019-06-10T00:18:07.022Z,1.77
2019-06-10T00:20:24.204Z,1.60
2019-06-10T00:22:54.944Z,1.80
2019-06-10T00:25:25.650Z,1.90
2019-06-10T00:27:56.274Z,1.80
2019-06-10T00:30:27.003Z,2.13
2019-06-10T00:32:58.602Z,1.90
2019-06-10T00:35:31.451Z,1.90
2019-06-10T00:38:06.040Z,1.77
2019-06-10T00:40:35.017Z,2.30
2019-06-10T00:43:07.026Z,1.87
2019-06-10T00:45:37.959Z,2.10
2019-06-10T00:48:21.642Z,2.20
2019-06-10T00:50:41.732Z,2.23
2019-06-10T00:53:14.539Z,2.40
2019-06-10T00:55:44.967Z,2.20
2019-06-10T00:58:15.609Z,2.00
2019-06-10T01:00:46.211Z,2.40
2019-06-10T01:03:16.872Z,2.10
2019-06-10T01:05:47.611Z,2.17
2019-06-10T01:08:18.243Z,2.30
2019-06-10T01:10:52.012Z,2.30
2019-06-10T01:13:21.296Z,2.43
2019-06-10T01:15:53.048Z,2.60
2019-06-10T01:18:34.979Z,2.33
2019-06-10T01:20:56.403Z,2.10
2019-06-10T01:23:27.055Z,2.13
2019-06-10T01:25:57.732Z,2.20
2019-06-10T01:28:28.374Z,2.57
2019-06-10T01:31:01.075Z,2.50
2019-06-10T01:33:31.891Z,2.43
2019-06-10T01:36:02.654Z,2.20
2019-06-10T01:38:40.828Z,2.63
2019-06-10T01:41:13.827Z,2.10
2019-06-10T01:43:43.634Z,2.47
2019-06-10T01:46:15.646Z,2.63
2019-06-10T01:48:52.078Z,2.30
2019-06-10T01:51:23.628Z,2.50
2019-06-10T01:53:54.236Z,2.23
2019-06-10T01:56:24.853Z,2.40
2019-06-10T01:58:55.462Z,2.47
2019-06-10T02:01:31.879Z,2.47
2019-06-10T02:04:04.848Z,2.30
2019-06-10T02:06:46.825Z,2.40
2019-06-10T02:09:22.908Z,2.50
2019-06-10T02:11:52.856Z,2.40
2019-06-10T02:14:25.197Z,2.30
2019-06-10T02:16:57.494Z,2.50
2019-06-10T02:19:31.172Z,2.60
2019-06-10T02:22:03.653Z,2.70
2019-06-10T02:24:36.088Z,2.60
2019-06-10T02:27:12.914Z,2.20
2019-06-10T02:29:51.394Z,2.60
2019-06-10T02:32:32.009Z,2.60
2019-06-10T02:35:13.628Z,2.53
2019-06-10T02:37:38.507Z,2.47
2019-06-10T02:40:20.604Z,2.70
2019-06-10T02:42:53.945Z,2.57
2019-06-10T02:45:32.716Z,2.50
2019-06-10T02:47:59.084Z,2.60
2019-06-10T02:51:07.659Z,2.57
2019-06-10T02:53:43.075Z,2.40
2019-06-10T02:56:16.752Z,2.27
2019-06-10T02:58:48.290Z,2.70
2019-06-10T03:01:21.723Z,2.50
2019-06-10T03:03:54.215Z,2.40
2019-06-10T03:06:32.478Z,2.43
2019-06-10T03:09:03.744Z,2.67
2019-06-10T03:11:37.244Z,2.43
2019-06-10T03:14:06.619Z,2.50
2019-06-10T03:16:42.190Z,2.40
2019-06-10T03:19:13.442Z,2.70
2019-06-10T03:21:44.707Z,2.80
2019-06-10T03:24:17.015Z,2.60
2019-06-10T03:26:47.958Z,2.90
2019-06-10T03:29:20.543Z,2.50
2019-06-10T03:31:55.220Z,2.50
2019-06-10T03:34:33.429Z,2.53
2019-06-10T03:36:58.146Z,2.70
2019-06-10T03:39:42.738Z,2.63
2019-06-10T03:42:14.244Z,2.63
2019-06-10T03:44:45.084Z,2.90
2019-06-10T03:47:28.815Z,3.13
2019-06-10T03:50:03.841Z,3.10
2019-06-10T03:52:34.614Z,3.00
2019-06-10T03:55:05.461Z,3.10
2019-06-10T03:57:36.015Z,2.90
2019-06-10T04:00:11.423Z,2.53
2019-06-10T04:02:39.882Z,3.03
2019-06-10T04:05:13.100Z,3.20
2019-06-10T04:07:43.959Z,3.10
2019-06-10T04:10:14.766Z,2.80
2019-06-10T04:12:45.550Z,2.97
2019-06-10T04:15:17.503Z,2.80
2019-06-10T04:17:48.368Z,2.90
2019-06-10T04:20:19.782Z,2.80
2019-06-10T04:22:52.333Z,2.80
2019-06-10T04:25:25.218Z,2.77
2019-06-10T04:27:55.221Z,2.80
2019-06-10T04:30:27.580Z,2.60
2019-06-10T04:32:58.330Z,2.50
2019-06-10T04:35:37.893Z,2.50
2019-06-10T04:38:08.604Z,2.50
2019-06-10T04:40:43.080Z,2.83
2019-06-10T04:43:15.709Z,2.70
2019-06-10T04:45:45.980Z,2.50
2019-06-10T04:48:16.462Z,2.77
2019-06-10T04:50:47.084Z,2.80
2019-06-10T04:53:18.710Z,2.60
2019-06-10T04:55:52.259Z,2.80
2019-06-10T04:58:24.416Z,2.60
2019-06-10T05:00:56.045Z,2.73
2019-06-10T05:03:36.454Z,2.77
2019-06-10T05:06:07.134Z,2.90
2019-06-10T05:08:37.726Z,3.10
2019-06-10T05:11:08.333Z,2.90
2019-06-10T05:13:39.037Z,2.60
2019-06-10T05:16:15.614Z,2.50
2019-06-10T05:18:46.257Z,2.70
2019-06-10T05:21:16.888Z,2.40
2019-06-10T05:23:47.491Z,3.13
2019-06-10T05:26:18.174Z,3.10
2019-06-10T05:28:48.913Z,3.47
2019-06-10T05:31:20.232Z,3.50
2019-06-10T05:33:53.062Z,3.17
2019-06-10T05:36:27.085Z,3.40
2019-06-10T05:38:56.592Z,3.53
2019-06-10T05:41:28.735Z,3.77
2019-06-10T05:44:02.555Z,2.93
2019-06-10T05:46:34.872Z,3.97
2019-06-10T05:49:05.376Z,3.47
2019-06-10T05:51:36.221Z,3.93
2019-06-10T05:54:06.780Z,3.70
2019-06-10T05:56:37.451Z,3.83
2019-06-10T05:59:09.060Z,4.00
2019-06-10T06:01:39.759Z,3.77
2019-06-10T06:04:12.680Z,3.83
2019-06-10T06:06:45.049Z,3.30
2019-06-10T06:09:15.059Z,4.00
2019-06-10T06:11:45.784Z,3.67
2019-06-10T06:14:16.490Z,4.27
2019-06-10T06:16:47.179Z,3.97
2019-06-10T06:19:17.724Z,4.10
2019-06-10T06:21:57.550Z,4.20
2019-06-10T06:24:29.514Z,4.10
2019-06-10T06:27:02.380Z,4.20
2019-06-10T06:29:33.895Z,3.90
2019-06-10T06:32:05.132Z,4.30
2019-06-10T06:34:39.927Z,4.17
2019-06-10T06:37:12.598Z,3.97
2019-06-10T06:39:43.041Z,3.97
2019-06-10T06:42:13.771Z,4.40
2019-06-10T06:44:44.319Z,4.60
2019-06-10T06:47:23.804Z,4.10
2019-06-10T06:49:56.502Z,4.57
2019-06-10T06:52:55.626Z,4.57
2019-06-10T06:54:59.380Z,4.27
2019-06-10T06:57:33.232Z,4.00
2019-06-10T07:00:34.144Z,4.23
2019-06-10T07:02:40.891Z,4.50
2019-06-10T07:05:12.623Z,4.50
2019-06-10T07:07:43.617Z,4.13
2019-06-10T07:10:15.438Z,4.13
2019-06-10T07:12:46.472Z,4.10
2019-06-10T07:15:22.377Z,4.70
2019-06-10T07:17:58.660Z,4.47
2019-06-10T07:20:32.685Z,7.77
2019-06-10T07:23:02.860Z,5.57
2019-06-10T07:25:36.666Z,4.93
2019-06-10T07:28:05.931Z,4.90
2019-06-10T07:30:51.001Z,4.60
2019-06-10T07:33:18.102Z,4.20
2019-06-10T07:35:52.509Z,4.57
2019-06-10T07:38:26.194Z,4.40
2019-06-10T07:40:55.727Z,4.60
2019-06-10T07:43:27.388Z,4.47
2019-06-10T07:46:03.396Z,5.00
2019-06-10T07:48:35.281Z,4.03
2019-06-10T07:51:08.022Z,4.70
2019-06-10T07:53:41.717Z,4.63
2019-06-10T07:56:13.036Z,4.70
2019-06-10T07:58:47.462Z,4.70
2019-06-10T08:01:22.666Z,4.00
2019-06-10T08:03:52.961Z,4.60
2019-06-10T08:06:23.651Z,4.50
2019-06-10T08:08:54.521Z,4.73
2019-06-10T08:11:25.450Z,5.03
2019-06-10T08:14:06.403Z,4.40
2019-06-10T08:16:46.563Z,4.20
2019-06-10T08:19:29.395Z,5.40
2019-06-10T08:22:03.154Z,4.43
2019-06-10T08:24:43.701Z,4.60
2019-06-10T08:27:13.261Z,4.70
2019-06-10T08:30:07.824Z,4.83
2019-06-10T08:32:45.097Z,3.93
2019-06-10T08:35:14.881Z,4.57
2019-06-10T08:37:46.315Z,5.03
2019-06-10T08:40:18.134Z,4.70
2019-06-10T08:42:48.973Z,4.63
2019-06-10T08:45:19.725Z,5.10
2019-06-10T08:47:54.243Z,4.33
2019-06-10T08:50:26.479Z,5.13
2019-06-10T08:53:10.289Z,4.93
2019-06-10T08:55:31.222Z,5.30
2019-06-10T08:58:15.749Z,5.00
2019-06-10T09:00:49.368Z,5.60
2019-06-10T09:03:19.266Z,4.90
2019-06-10T09:05:53.929Z,5.20
2019-06-10T09:08:24.597Z,5.07
2019-06-10T09:10:55.755Z,5.03
2019-06-10T09:13:26.646Z,5.90
2019-06-10T09:16:18.943Z,5.83
2019-06-10T09:18:48.158Z,5.63
2019-06-10T09:21:17.224Z,5.80
2019-06-10T09:24:03.602Z,4.80
2019-06-10T09:26:33.814Z,6.00
2019-06-10T09:29:09.485Z,6.07
2019-06-10T09:31:45.565Z,5.57
2019-06-10T09:34:14.070Z,6.60
2019-06-10T09:36:49.556Z,5.13
2019-06-10T09:39:22.988Z,5.30
2019-06-10T09:42:01.163Z,6.17
2019-06-10T09:44:27.211Z,5.97
2019-06-10T09:47:07.832Z,5.73
2019-06-10T09:49:38.674Z,5.80
2019-06-10T09:52:13.327Z,7.10
2019-06-10T09:54:52.650Z,6.67
2019-06-10T09:57:23.720Z,6.07
2019-06-10T09:59:56.315Z,5.87
2019-06-10T10:02:26.181Z,6.27
2019-06-10T10:05:03.105Z,6.20
2019-06-10T10:07:34.977Z,6.63
2019-06-10T10:10:06.298Z,6.80
2019-06-10T10:12:37.117Z,6.83
2019-06-10T10:15:26.570Z,6.80
2019-06-10T10:17:48.294Z,5.80
2019-06-10T10:20:19.528Z,6.10
2019-06-10T10:22:51.220Z,5.70
2019-06-10T10:25:23.519Z,5.57
2019-06-10T10:27:57.622Z,6.37
2019-06-10T10:30:28.357Z,6.23
2019-06-10T10:32:59.141Z,6.00
2019-06-10T10:35:32.619Z,6.10
2019-06-10T10:38:04.193Z,6.40
2019-06-10T10:40:35.055Z,6.70
2019-06-10T10:43:23.255Z,6.60
2019-06-10T10:45:38.484Z,6.53
2019-06-10T10:48:09.330Z,6.10
2019-06-10T10:50:40.153Z,6.53
2019-06-10T10:53:12.836Z,6.20
2019-06-10T10:55:43.765Z,6.27
2019-06-10T10:58:15.617Z,5.90
2019-06-10T11:00:56.465Z,5.53
2019-06-10T11:03:25.217Z,5.53
2019-06-10T11:06:00.777Z,6.03
2019-06-10T11:08:28.354Z,5.80
2019-06-10T11:11:03.651Z,7.20
2019-06-10T11:13:37.000Z,7.63
2019-06-10T11:16:10.936Z,6.83
2019-06-10T11:18:42.323Z,6.63
2019-06-10T11:21:13.710Z,6.87
2019-06-10T11:23:46.165Z,7.67
2019-06-10T11:26:16.965Z,7.43
2019-06-10T11:28:47.830Z,7.87
2019-06-10T11:31:18.683Z,7.80
2019-06-10T11:33:51.347Z,7.27
2019-06-10T11:36:22.777Z,7.03
2019-06-10T11:38:56.941Z,7.83
2019-06-10T11:41:26.270Z,7.17
2019-06-10T11:44:01.484Z,6.73
2019-06-10T11:46:35.269Z,6.13
2019-06-10T11:49:06.092Z,6.93
2019-06-10T11:51:36.786Z,6.30
2019-06-10T11:54:07.588Z,7.20
2019-06-10T11:56:38.347Z,6.60
2019-06-10T11:59:10.089Z,6.23
2019-06-10T12:01:42.699Z,6.20
2019-06-10T12:04:13.551Z,6.40
2019-06-10T12:06:44.196Z,6.63
2019-06-10T12:09:14.920Z,7.20
2019-06-10T12:11:45.744Z,6.90
2019-06-10T12:14:17.496Z,5.40
2019-06-10T12:17:17.436Z,5.80
2019-06-10T12:19:27.519Z,6.40
2019-06-10T12:22:03.671Z,5.93
2019-06-10T12:24:33.035Z,5.40
2019-06-10T12:27:04.984Z,5.97
2019-06-10T12:29:36.250Z,5.47
2019-06-10T12:32:08.043Z,6.50
2019-06-10T12:34:38.750Z,6.33
2019-06-10T12:37:13.051Z,6.13
2019-06-10T12:39:42.468Z,6.27
2019-06-10T12:42:14.348Z,6.03
2019-06-10T12:44:45.254Z,5.57
2019-06-10T12:47:17.092Z,5.13
2019-06-10T12:49:53.232Z,5.43
2019-06-10T12:52:23.739Z,5.40
2019-06-10T12:54:55.581Z,5.53
2019-06-10T12:57:26.508Z,5.50
2019-06-10T12:59:58.441Z,5.17
2019-06-10T13:02:34.047Z,4.87
2019-06-10T13:05:05.693Z,5.20
2019-06-10T13:07:36.056Z,5.40
2019-06-10T13:10:08.153Z,5.63
2019-06-10T13:12:42.905Z,5.13
2019-06-10T13:15:13.901Z,5.30
2019-06-10T13:17:48.814Z,4.97
2019-06-10T13:20:19.642Z,5.20
2019-06-10T13:22:50.695Z,5.43
2019-06-10T13:25:22.160Z,5.17
2019-06-10T13:27:53.080Z,5.27
2019-06-10T13:30:24.105Z,4.80
2019-06-10T13:32:56.352Z,5.57
2019-06-10T13:35:28.178Z,5.27
2019-06-10T13:37:59.123Z,4.93
2019-06-10T13:40:31.893Z,5.33
2019-06-10T13:43:06.035Z,4.73
2019-06-10T13:45:43.122Z,5.33
2019-06-10T13:48:23.323Z,4.40
2019-06-10T13:50:58.633Z,4.73
2019-06-10T13:53:36.448Z,5.03
2019-06-10T13:56:32.374Z,4.53
2019-06-10T13:58:45.056Z,4.73
2019-06-10T14:01:21.510Z,4.40
2019-06-10T14:03:48.087Z,4.70
2019-06-10T14:06:37.092Z,5.33
2019-06-10T14:08:54.889Z,5.30
2019-06-10T14:11:28.480Z,5.13
2019-06-10T14:13:57.428Z,5.20
2019-06-10T14:16:32.878Z,5.13
2019-06-10T14:19:05.809Z,5.30
2019-06-10T14:21:35.324Z,4.80
2019-06-10T14:24:08.138Z,4.00
2019-06-10T14:26:42.950Z,3.90
2019-06-10T14:29:14.254Z,3.80
2019-06-10T14:31:47.798Z,4.10
2019-06-10T14:34:18.720Z,4.37
2019-06-10T14:36:49.799Z,4.23
2019-06-10T14:39:22.106Z,4.20
2019-06-10T14:41:54.878Z,4.23
2019-06-10T14:44:25.748Z,3.97
2019-06-10T14:46:58.796Z,4.03
2019-06-10T14:49:33.891Z,4.33
2019-06-10T14:52:12.257Z,3.77
2019-06-10T14:54:42.904Z,4.30
2019-06-10T14:57:15.086Z,4.00
2019-06-10T14:59:46.691Z,3.90
2019-06-10T15:02:18.501Z,4.00
2019-06-10T15:04:49.287Z,4.70
2019-06-10T15:07:23.445Z,4.10
2019-06-10T15:09:52.746Z,4.30
2019-06-10T15:12:23.567Z,4.70
2019-06-10T15:14:55.393Z,4.33
2019-06-10T15:17:27.197Z,4.10
2019-06-10T15:19:58.060Z,4.57
2019-06-10T15:22:28.887Z,4.53
2019-06-10T15:25:03.208Z,4.43
2019-06-10T15:27:34.887Z,4.63
2019-06-10T15:30:14.783Z,4.57
2019-06-10T15:32:42.654Z,4.50
2019-06-10T15:35:18.649Z,4.43
2019-06-10T15:37:49.040Z,4.23
2019-06-10T15:40:19.869Z,4.40
2019-06-10T15:43:01.089Z,4.80
2019-06-10T15:45:32.704Z,4.67
2019-06-10T15:48:03.473Z,4.73
2019-06-10T15:50:34.197Z,4.50
2019-06-10T15:53:06.914Z,4.63
2019-06-10T15:56:05.758Z,4.60
2019-06-10T15:58:12.902Z,4.87
2019-06-10T16:00:43.449Z,4.60
2019-06-10T16:03:21.136Z,8.23
2019-06-10T16:05:55.908Z,5.10
2019-06-10T16:08:33.463Z,4.97
2019-06-10T16:11:04.301Z,4.73
2019-06-10T16:13:35.091Z,4.80
2019-06-10T16:16:12.826Z,4.70
2019-06-10T16:19:02.283Z,4.97
2019-06-10T16:21:34.143Z,4.50
2019-06-10T16:24:08.464Z,3.97
2019-06-10T16:26:39.426Z,4.47
2019-06-10T16:29:12.336Z,4.73
2019-06-10T16:31:43.380Z,3.90
2019-06-10T16:34:14.730Z,4.50
2019-06-10T16:36:46.265Z,4.97
2019-06-10T16:39:25.647Z,4.70
2019-06-10T16:41:57.481Z,4.73
2019-06-10T16:44:32.788Z,4.33
2019-06-10T16:47:03.562Z,4.50
2019-06-10T16:49:34.820Z,4.13
2019-06-10T16:52:05.561Z,3.87
2019-06-10T16:54:42.154Z,4.70
2019-06-10T16:57:14.525Z,4.63
2019-06-10T16:59:47.512Z,4.20
2019-06-10T17:02:19.270Z,4.67
2019-06-10T17:04:52.670Z,4.47
2019-06-10T17:07:24.523Z,4.40
2019-06-10T17:09:55.569Z,4.60
2019-06-10T17:12:30.226Z,4.60
2019-06-10T17:15:03.435Z,4.60
2019-06-10T17:17:38.032Z,4.30
2019-06-10T17:20:09.406Z,4.63
2019-06-10T17:22:40.251Z,4.63
2019-06-10T17:25:13.060Z,4.90
2019-06-10T17:27:45.406Z,5.17
2019-06-10T17:30:16.397Z,4.70
2019-06-10T17:32:48.119Z,4.30
2019-06-10T17:35:20.505Z,4.00
2019-06-10T17:37:52.293Z,4.03
2019-06-10T17:40:26.035Z,3.50
2019-06-10T17:42:56.777Z,3.33
2019-06-10T17:45:33.645Z,3.10
2019-06-10T17:48:05.895Z,4.33
2019-06-10T17:50:36.535Z,3.40
2019-06-10T17:53:08.255Z,3.07
2019-06-10T17:55:39.002Z,2.70
2019-06-10T17:58:09.651Z,3.37
2019-06-10T18:00:42.268Z,3.27
2019-06-10T18:03:13.209Z,3.77
2019-06-10T18:05:43.885Z,2.90
2019-06-10T18:08:14.612Z,4.20
2019-06-10T18:10:53.893Z,3.37
2019-06-10T18:13:26.182Z,3.53
2019-06-10T18:16:05.819Z,3.43
2019-06-10T18:18:37.319Z,3.27
2019-06-10T18:21:08.157Z,2.80
2019-06-10T18:23:39.977Z,3.40
2019-06-10T18:26:12.394Z,3.17
2019-06-10T18:29:01.951Z,3.13
2019-06-10T18:31:29.574Z,4.47
2019-06-10T18:34:02.369Z,3.67
2019-06-10T18:36:34.637Z,3.33
2019-06-10T18:39:06.678Z,3.17
2019-06-10T18:41:37.563Z,3.50
2019-06-10T18:44:19.796Z,3.00
2019-06-10T18:46:43.314Z,3.03
2019-06-10T18:49:17.298Z,3.27
2019-06-10T18:51:48.025Z,3.30
2019-06-10T18:54:19.198Z,3.60
2019-06-10T18:56:52.582Z,3.43
2019-06-10T18:59:23.456Z,3.10
2019-06-10T19:01:54.237Z,3.60
2019-06-10T19:04:28.656Z,3.47
2019-06-10T19:07:02.770Z,3.47
2019-06-10T19:09:37.299Z,3.60
2019-06-10T19:12:06.592Z,3.63
2019-06-10T19:14:38.336Z,3.80
2019-06-10T19:17:12.323Z,3.77
2019-06-10T19:19:43.229Z,3.60
2019-06-10T19:22:14.110Z,3.87
2019-06-10T19:24:45.658Z,4.00
2019-06-10T19:27:17.532Z,3.83
2019-06-10T19:29:51.308Z,4.30
2019-06-10T19:32:24.209Z,3.57
2019-06-10T19:34:57.037Z,3.77
2019-06-10T19:37:27.768Z,4.13
2019-06-10T19:39:59.521Z,4.03
2019-06-10T19:42:32.946Z,4.40
2019-06-10T19:45:07.956Z,4.50
2019-06-10T19:47:45.569Z,4.87
2019-06-10T19:50:16.521Z,4.30
2019-06-10T19:52:56.884Z,4.57
2019-06-10T19:55:32.020Z,4.20
2019-06-10T19:58:03.743Z,4.67
2019-06-10T20:00:35.947Z,5.40
2019-06-10T20:03:09.674Z,4.90
2019-06-10T20:05:46.896Z,5.10
2019-06-10T20:08:18.956Z,5.87
2019-06-10T20:10:54.597Z,6.13
2019-06-10T20:13:25.828Z,5.67
2019-06-10T20:15:57.165Z,5.70
2019-06-10T20:18:29.107Z,5.47
2019-06-10T20:21:02.644Z,5.80
2019-06-10T20:23:35.358Z,5.97
2019-06-10T20:26:06.200Z,5.90
2019-06-10T20:28:41.329Z,6.57
2019-06-10T20:31:13.829Z,6.73
2019-06-10T20:33:44.581Z,7.60
2019-06-10T20:36:21.974Z,8.07
2019-06-10T20:38:48.883Z,7.50
2019-06-10T20:41:22.269Z,8.10
2019-06-10T20:43:55.511Z,8.57
2019-06-10T20:46:27.432Z,8.43
2019-06-10T20:49:03.257Z,7.90
2019-06-10T20:51:48.882Z,8.00
2019-06-10T20:54:07.685Z,7.30
2019-06-10T20:56:41.087Z,8.20
2019-06-10T20:59:13.133Z,8.20
2019-06-10T21:01:49.432Z,7.07
2019-06-10T21:04:20.306Z,7.67
2019-06-10T21:07:05.903Z,7.57
2019-06-10T21:09:37.504Z,8.07
2019-06-10T21:12:13.054Z,7.10
2019-06-10T21:14:45.671Z,7.70
2019-06-10T21:17:16.908Z,7.77
2019-06-10T21:19:49.129Z,7.73
2019-06-10T21:22:19.965Z,8.20
2019-06-10T21:25:05.243Z,7.90
2019-06-10T21:27:35.990Z,8.63
2019-06-10T21:30:11.671Z,8.13
2019-06-10T21:32:41.728Z,8.00
2019-06-10T21:35:13.470Z,8.23
2019-06-10T21:37:49.735Z,8.73
2019-06-10T21:40:22.158Z,9.40
2019-06-10T21:42:54.122Z,9.47
2019-06-10T21:45:24.899Z,9.80
2019-06-10T21:48:06.842Z,9.27
2019-06-10T21:50:45.257Z,9.33
2019-06-10T21:53:16.747Z,9.33
2019-06-10T21:55:48.810Z,9.63
2019-06-10T21:58:25.292Z,9.57
2019-06-10T22:01:12.559Z,9.40
2019-06-10T22:03:37.790Z,9.30
2019-06-10T22:06:16.904Z,9.33
2019-06-10T22:08:50.064Z,9.50
2019-06-10T22:11:23.431Z,9.90
2019-06-10T22:13:56.374Z,9.00
2019-06-10T22:16:27.344Z,11.00
2019-06-10T22:18:58.030Z,10.00
2019-06-10T22:21:33.466Z,11.07
2019-06-10T22:24:06.272Z,11.40
2019-06-10T22:26:43.060Z,10.97
2019-06-10T22:29:13.771Z,11.47
2019-06-10T22:31:45.220Z,10.80
2019-06-10T22:34:17.168Z,10.97
2019-06-10T22:36:48.035Z,10.93
2019-06-10T22:39:22.260Z,11.40
2019-06-10T22:41:55.134Z,11.37
2019-06-10T22:44:35.449Z,12.03
2019-06-10T22:47:08.213Z,11.23
2019-06-10T22:49:38.880Z,11.57
2019-06-10T22:52:12.420Z,10.67
2019-06-10T22:54:43.157Z,10.63
2019-06-10T22:57:15.541Z,10.83
2019-06-10T22:59:46.210Z,9.33
2019-06-10T23:02:18.847Z,9.97
2019-06-10T23:04:54.528Z,10.70
2019-06-10T23:07:24.270Z,9.20
2019-06-10T23:09:56.374Z,8.40
2019-06-10T23:12:30.646Z,8.20
2019-06-10T23:15:05.172Z,7.73
2019-06-10T23:17:39.220Z,8.30
2019-06-10T23:20:12.375Z,8.27
2019-06-10T23:22:42.604Z,8.00
2019-06-10T23:25:13.511Z,8.37
2019-06-10T23:27:46.161Z,8.97
2019-06-10T23:30:18.875Z,8.43
2019-06-10T23:33:03.617Z,8.17
2019-06-10T23:35:38.331Z,8.23
2019-06-10T23:38:09.488Z,8.30
2019-06-10T23:40:42.738Z,6.97
2019-06-10T23:43:13.371Z,7.47
2019-06-10T23:45:48.314Z,6.87
2019-06-10T23:48:18.969Z,6.00
2019-06-10T23:50:52.707Z,6.50
2019-06-10T23:53:23.359Z,6.73
2019-06-10T23:55:56.177Z,6.23
2019-06-10T23:58:27.580Z,6.00
